sensor_id;sensor_type;location;lat;lon;timestamp;temperature;humidity
25906;DHT22;13713;52.552;13.204;2022-11-11T00:01:48;19.20;73.20
25906;DHT22;13713;52.552;13.204;2022-11-11T00:04:32;19.20;73.20
25906;DHT22;13713;52.552;13.204;2022-11-11T00:07:16;19.20;73.10
25906;DHT22;13713;52.552;13.204;2022-11-11T00:10:00;19.10;73.10
25906;DHT22;13713;52.552;13.204;2022-11-11T00:12:44;19.20;73.20
25906;DHT22;13713;52.552;13.204;2022-11-11T00:15:28;19.20;73.20
25906;DHT22;13713;52.552;13.204;2022-11-11T00:18:12;19.10;73.10
25906;DHT22;13713;52.552;13.204;2022-11-11T00:21:15;19.10;73.10
25906;DHT22;13713;52.552;13.204;2022-11-11T00:24:24;19.20;73.20
25906;DHT22;13713;52.552;13.204;2022-11-11T00:27:28;19.10;73.10
25906;DHT22;13713;52.552;13.204;2022-11-11T00:30:12;19.10;73.10
25906;DHT22;13713;52.552;13.204;2022-11-11T00:32:56;19.10;73.10
25906;DHT22;13713;52.552;13.204;2022-11-11T00:35:40;19.10;73.20
25906;DHT22;13713;52.552;13.204;2022-11-11T00:38:37;19.10;73.20
25906;DHT22;13713;52.552;13.204;2022-11-11T00:41:30;19.10;73.10
25906;DHT22;13713;52.552;13.204;2022-11-11T00:44:15;19.10;73.20
25906;DHT22;13713;52.552;13.204;2022-11-11T00:46:59;19.10;73.20
25906;DHT22;13713;52.552;13.204;2022-11-11T00:50:05;19.10;73.20
25906;DHT22;13713;52.552;13.204;2022-11-11T00:53:20;19.10;73.20
25906;DHT22;13713;52.552;13.204;2022-11-11T00:56:04;19.10;73.20
25906;DHT22;13713;52.552;13.204;2022-11-11T00:58:49;19.10;73.20
25906;DHT22;13713;52.552;13.204;2022-11-11T01:01:35;19.10;73.20
25906;DHT22;13713;52.552;13.204;2022-11-11T01:04:22;19.10;73.20
25906;DHT22;13713;52.552;13.204;2022-11-11T01:07:06;19.10;73.30
25906;DHT22;13713;52.552;13.204;2022-11-11T01:09:50;19.10;73.20
25906;DHT22;13713;52.552;13.204;2022-11-11T01:12:35;19.10;73.30
25906;DHT22;13713;52.552;13.204;2022-11-11T01:15:19;19.10;73.20
25906;DHT22;13713;52.552;13.204;2022-11-11T01:18:04;19.10;73.20
25906;DHT22;13713;52.552;13.204;2022-11-11T01:21:19;19.10;73.20
25906;DHT22;13713;52.552;13.204;2022-11-11T01:24:04;19.10;73.20
25906;DHT22;13713;52.552;13.204;2022-11-11T01:26:48;19.10;73.20
25906;DHT22;13713;52.552;13.204;2022-11-11T01:29:32;19.10;73.20
25906;DHT22;13713;52.552;13.204;2022-11-11T01:32:16;19.10;73.20
25906;DHT22;13713;52.552;13.204;2022-11-11T01:35:00;19.00;73.20
25906;DHT22;13713;52.552;13.204;2022-11-11T01:37:44;19.00;73.20
25906;DHT22;13713;52.552;13.204;2022-11-11T01:40:28;19.00;73.20
25906;DHT22;13713;52.552;13.204;2022-11-11T01:43:18;19.00;73.20
25906;DHT22;13713;52.552;13.204;2022-11-11T01:46:02;19.00;73.20
25906;DHT22;13713;52.552;13.204;2022-11-11T01:48:53;19.00;73.20
25906;DHT22;13713;52.552;13.204;2022-11-11T01:52:09;19.00;73.20
25906;DHT22;13713;52.552;13.204;2022-11-11T01:57:59;18.90;73.10
25906;DHT22;13713;52.552;13.204;2022-11-11T02:00:44;19.00;73.30
25906;DHT22;13713;52.552;13.204;2022-11-11T02:03:30;19.00;74.00
25906;DHT22;13713;52.552;13.204;2022-11-11T02:06:16;19.00;73.20
25906;DHT22;13713;52.552;13.204;2022-11-11T02:09:02;19.10;73.30
25906;DHT22;13713;52.552;13.204;2022-11-11T02:11:47;19.00;73.20
25906;DHT22;13713;52.552;13.204;2022-11-11T02:14:54;19.00;73.20
25906;DHT22;13713;52.552;13.204;2022-11-11T02:17:39;19.00;73.20
25906;DHT22;13713;52.552;13.204;2022-11-11T02:20:26;18.80;73.10
25906;DHT22;13713;52.552;13.204;2022-11-11T02:23:36;19.00;73.20
25906;DHT22;13713;52.552;13.204;2022-11-11T02:26:23;19.00;73.20
25906;DHT22;13713;52.552;13.204;2022-11-11T02:29:11;18.90;73.20
25906;DHT22;13713;52.552;13.204;2022-11-11T02:31:56;19.00;73.30
25906;DHT22;13713;52.552;13.204;2022-11-11T02:34:41;18.90;73.20
25906;DHT22;13713;52.552;13.204;2022-11-11T02:37:26;18.90;73.20
25906;DHT22;13713;52.552;13.204;2022-11-11T02:40:19;18.90;73.20
25906;DHT22;13713;52.552;13.204;2022-11-11T02:43:04;18.80;73.10
25906;DHT22;13713;52.552;13.204;2022-11-11T02:45:49;18.90;73.20
25906;DHT22;13713;52.552;13.204;2022-11-11T02:48:33;18.90;73.10
25906;DHT22;13713;52.552;13.204;2022-11-11T02:51:17;19.00;73.10
25906;DHT22;13713;52.552;13.204;2022-11-11T02:54:02;18.90;73.10
25906;DHT22;13713;52.552;13.204;2022-11-11T02:56:46;18.90;73.20
25906;DHT22;13713;52.552;13.204;2022-11-11T02:59:49;18.90;73.10
25906;DHT22;13713;52.552;13.204;2022-11-11T03:02:34;18.90;73.10
25906;DHT22;13713;52.552;13.204;2022-11-11T03:05:18;18.90;73.10
25906;DHT22;13713;52.552;13.204;2022-11-11T03:08:02;18.90;73.10
25906;DHT22;13713;52.552;13.204;2022-11-11T03:10:47;18.90;73.10
25906;DHT22;13713;52.552;13.204;2022-11-11T03:13:31;18.90;73.10
25906;DHT22;13713;52.552;13.204;2022-11-11T03:16:15;18.90;73.10
25906;DHT22;13713;52.552;13.204;2022-11-11T03:19:19;18.90;73.20
25906;DHT22;13713;52.552;13.204;2022-11-11T03:22:03;18.90;73.20
25906;DHT22;13713;52.552;13.204;2022-11-11T03:24:48;18.90;73.20
25906;DHT22;13713;52.552;13.204;2022-11-11T03:27:51;18.90;73.10
25906;DHT22;13713;52.552;13.204;2022-11-11T03:30:36;18.90;73.20
25906;DHT22;13713;52.552;13.204;2022-11-11T03:33:21;18.90;73.20
25906;DHT22;13713;52.552;13.204;2022-11-11T03:36:05;18.80;73.10
25906;DHT22;13713;52.552;13.204;2022-11-11T03:38:50;18.80;73.00
25906;DHT22;13713;52.552;13.204;2022-11-11T03:41:34;18.90;73.10
25906;DHT22;13713;52.552;13.204;2022-11-11T03:44:18;18.90;73.20
25906;DHT22;13713;52.552;13.204;2022-11-11T03:47:03;18.90;73.10
25906;DHT22;13713;52.552;13.204;2022-11-11T03:49:47;18.80;73.00
25906;DHT22;13713;52.552;13.204;2022-11-11T03:52:31;18.80;73.10
25906;DHT22;13713;52.552;13.204;2022-11-11T03:55:15;18.80;73.10
25906;DHT22;13713;52.552;13.204;2022-11-11T03:58:00;18.80;73.00
25906;DHT22;13713;52.552;13.204;2022-11-11T04:00:44;18.80;73.00
25906;DHT22;13713;52.552;13.204;2022-11-11T04:03:28;18.80;73.00
25906;DHT22;13713;52.552;13.204;2022-11-11T04:06:31;18.80;73.00
25906;DHT22;13713;52.552;13.204;2022-11-11T04:09:34;18.80;73.00
25906;DHT22;13713;52.552;13.204;2022-11-11T04:12:38;18.80;72.90
25906;DHT22;13713;52.552;13.204;2022-11-11T04:15:43;18.80;72.90
25906;DHT22;13713;52.552;13.204;2022-11-11T04:18:46;18.80;72.90
25906;DHT22;13713;52.552;13.204;2022-11-11T04:21:49;18.70;72.80
25906;DHT22;13713;52.552;13.204;2022-11-11T04:24:33;18.80;72.90
25906;DHT22;13713;52.552;13.204;2022-11-11T04:27:36;18.80;73.00
25906;DHT22;13713;52.552;13.204;2022-11-11T04:30:20;18.80;72.90
25906;DHT22;13713;52.552;13.204;2022-11-11T04:33:04;18.80;72.90
25906;DHT22;13713;52.552;13.204;2022-11-11T04:35:49;18.80;73.00
25906;DHT22;13713;52.552;13.204;2022-11-11T04:38:33;18.80;73.00
25906;DHT22;13713;52.552;13.204;2022-11-11T04:41:36;18.80;72.90
25906;DHT22;13713;52.552;13.204;2022-11-11T04:44:20;18.80;72.90
25906;DHT22;13713;52.552;13.204;2022-11-11T04:47:23;18.80;72.90
25906;DHT22;13713;52.552;13.204;2022-11-11T04:50:08;18.70;72.70
25906;DHT22;13713;52.552;13.204;2022-11-11T04:52:52;18.80;72.80
25906;DHT22;13713;52.552;13.204;2022-11-11T04:55:37;18.70;72.60
25906;DHT22;13713;52.552;13.204;2022-11-11T04:58:41;18.70;72.60
25906;DHT22;13713;52.552;13.204;2022-11-11T05:01:25;18.70;72.60
25906;DHT22;13713;52.552;13.204;2022-11-11T05:04:28;18.70;72.60
25906;DHT22;13713;52.552;13.204;2022-11-11T05:07:12;18.80;72.50
25906;DHT22;13713;52.552;13.204;2022-11-11T05:10:15;18.70;72.50
25906;DHT22;13713;52.552;13.204;2022-11-11T05:13:00;18.70;72.40
25906;DHT22;13713;52.552;13.204;2022-11-11T05:16:03;18.70;72.30
25906;DHT22;13713;52.552;13.204;2022-11-11T05:19:09;18.70;72.20
25906;DHT22;13713;52.552;13.204;2022-11-11T05:25:06;18.70;72.00
25906;DHT22;13713;52.552;13.204;2022-11-11T05:28:09;18.70;72.10
25906;DHT22;13713;52.552;13.204;2022-11-11T05:30:53;18.70;72.20
25906;DHT22;13713;52.552;13.204;2022-11-11T05:33:37;18.70;72.20
25906;DHT22;13713;52.552;13.204;2022-11-11T05:36:22;18.70;72.20
25906;DHT22;13713;52.552;13.204;2022-11-11T05:39:07;18.70;72.30
25906;DHT22;13713;52.552;13.204;2022-11-11T05:41:50;18.60;72.30
25906;DHT22;13713;52.552;13.204;2022-11-11T05:44:35;18.60;72.30
25906;DHT22;13713;52.552;13.204;2022-11-11T05:47:19;18.70;72.40
25906;DHT22;13713;52.552;13.204;2022-11-11T05:50:03;18.70;72.50
25906;DHT22;13713;52.552;13.204;2022-11-11T05:52:48;18.60;72.50
25906;DHT22;13713;52.552;13.204;2022-11-11T05:55:33;18.60;72.50
25906;DHT22;13713;52.552;13.204;2022-11-11T05:58:18;18.60;72.40
25906;DHT22;13713;52.552;13.204;2022-11-11T06:01:02;18.60;72.50
25906;DHT22;13713;52.552;13.204;2022-11-11T06:03:46;18.60;72.00
25906;DHT22;13713;52.552;13.204;2022-11-11T06:06:31;18.60;72.10
25906;DHT22;13713;52.552;13.204;2022-11-11T06:09:15;18.60;72.00
25906;DHT22;13713;52.552;13.204;2022-11-11T06:11:59;18.60;72.30
25906;DHT22;13713;52.552;13.204;2022-11-11T06:14:44;18.60;72.10
25906;DHT22;13713;52.552;13.204;2022-11-11T06:17:28;18.60;72.40
25906;DHT22;13713;52.552;13.204;2022-11-11T06:20:12;18.60;72.50
25906;DHT22;13713;52.552;13.204;2022-11-11T06:22:57;18.60;72.60
25906;DHT22;13713;52.552;13.204;2022-11-11T06:25:42;18.60;72.60
25906;DHT22;13713;52.552;13.204;2022-11-11T06:28:52;18.60;72.70
25906;DHT22;13713;52.552;13.204;2022-11-11T06:31:36;18.60;72.70
25906;DHT22;13713;52.552;13.204;2022-11-11T06:34:21;18.60;72.80
25906;DHT22;13713;52.552;13.204;2022-11-11T06:37:05;18.60;72.80
25906;DHT22;13713;52.552;13.204;2022-11-11T06:39:49;18.70;73.00
25906;DHT22;13713;52.552;13.204;2022-11-11T06:42:37;18.70;73.00
25906;DHT22;13713;52.552;13.204;2022-11-11T06:45:22;18.70;73.00
25906;DHT22;13713;52.552;13.204;2022-11-11T06:48:06;18.70;73.10
25906;DHT22;13713;52.552;13.204;2022-11-11T06:50:52;18.70;73.10
25906;DHT22;13713;52.552;13.204;2022-11-11T06:53:36;18.70;73.20
25906;DHT22;13713;52.552;13.204;2022-11-11T06:56:20;18.80;73.20
25906;DHT22;13713;52.552;13.204;2022-11-11T06:59:04;18.60;73.20
25906;DHT22;13713;52.552;13.204;2022-11-11T07:01:50;18.70;73.30
25906;DHT22;13713;52.552;13.204;2022-11-11T07:04:34;18.70;73.50
25906;DHT22;13713;52.552;13.204;2022-11-11T07:07:19;18.70;73.50
25906;DHT22;13713;52.552;13.204;2022-11-11T07:10:03;18.60;73.70
25906;DHT22;13713;52.552;13.204;2022-11-11T07:12:50;18.70;73.80
25906;DHT22;13713;52.552;13.204;2022-11-11T07:15:35;18.70;73.80
25906;DHT22;13713;52.552;13.204;2022-11-11T07:18:20;18.70;73.90
25906;DHT22;13713;52.552;13.204;2022-11-11T07:21:04;18.80;74.00
25906;DHT22;13713;52.552;13.204;2022-11-11T07:23:48;18.80;74.30
25906;DHT22;13713;52.552;13.204;2022-11-11T07:26:33;18.80;74.60
25906;DHT22;13713;52.552;13.204;2022-11-11T07:29:17;18.70;74.30
25906;DHT22;13713;52.552;13.204;2022-11-11T07:32:03;18.70;74.20
25906;DHT22;13713;52.552;13.204;2022-11-11T07:34:46;18.80;74.30
25906;DHT22;13713;52.552;13.204;2022-11-11T07:37:32;18.80;74.40
25906;DHT22;13713;52.552;13.204;2022-11-11T07:40:17;18.90;74.90
25906;DHT22;13713;52.552;13.204;2022-11-11T07:43:02;18.90;74.70
25906;DHT22;13713;52.552;13.204;2022-11-11T07:45:46;18.90;74.60
25906;DHT22;13713;52.552;13.204;2022-11-11T07:48:30;18.90;75.10
25906;DHT22;13713;52.552;13.204;2022-11-11T07:51:14;18.90;75.20
25906;DHT22;13713;52.552;13.204;2022-11-11T07:53:58;18.90;75.20
25906;DHT22;13713;52.552;13.204;2022-11-11T07:56:43;19.00;75.10
25906;DHT22;13713;52.552;13.204;2022-11-11T07:59:27;19.00;75.50
25906;DHT22;13713;52.552;13.204;2022-11-11T08:02:12;19.00;76.90
25906;DHT22;13713;52.552;13.204;2022-11-11T08:04:56;19.00;75.60
25906;DHT22;13713;52.552;13.204;2022-11-11T08:07:41;19.00;75.40
25906;DHT22;13713;52.552;13.204;2022-11-11T08:10:28;19.00;75.50
25906;DHT22;13713;52.552;13.204;2022-11-11T08:13:12;19.10;76.70
25906;DHT22;13713;52.552;13.204;2022-11-11T08:16:15;19.10;76.10
25906;DHT22;13713;52.552;13.204;2022-11-11T08:18:59;19.10;76.40
25906;DHT22;13713;52.552;13.204;2022-11-11T08:21:44;19.20;76.00
25906;DHT22;13713;52.552;13.204;2022-11-11T08:24:28;19.20;76.40
25906;DHT22;13713;52.552;13.204;2022-11-11T08:27:12;19.20;76.70
25906;DHT22;13713;52.552;13.204;2022-11-11T08:29:56;19.20;76.20
25906;DHT22;13713;52.552;13.204;2022-11-11T08:32:40;19.20;76.30
25906;DHT22;13713;52.552;13.204;2022-11-11T08:35:25;19.30;76.40
25906;DHT22;13713;52.552;13.204;2022-11-11T08:38:10;19.30;76.40
25906;DHT22;13713;52.552;13.204;2022-11-11T08:40:54;19.30;77.20
25906;DHT22;13713;52.552;13.204;2022-11-11T08:43:38;19.40;76.70
25906;DHT22;13713;52.552;13.204;2022-11-11T08:46:23;19.40;76.60
25906;DHT22;13713;52.552;13.204;2022-11-11T08:49:07;19.40;76.30
25906;DHT22;13713;52.552;13.204;2022-11-11T08:51:51;19.40;76.50
25906;DHT22;13713;52.552;13.204;2022-11-11T08:54:35;19.40;76.40
25906;DHT22;13713;52.552;13.204;2022-11-11T08:57:19;19.40;76.40
25906;DHT22;13713;52.552;13.204;2022-11-11T09:00:04;19.40;76.80
25906;DHT22;13713;52.552;13.204;2022-11-11T09:02:48;19.40;77.20
25906;DHT22;13713;52.552;13.204;2022-11-11T09:05:33;19.50;77.00
25906;DHT22;13713;52.552;13.204;2022-11-11T09:08:17;19.50;76.80
25906;DHT22;13713;52.552;13.204;2022-11-11T09:11:02;19.50;76.80
25906;DHT22;13713;52.552;13.204;2022-11-11T09:13:46;19.50;77.00
25906;DHT22;13713;52.552;13.204;2022-11-11T09:16:30;19.50;77.10
25906;DHT22;13713;52.552;13.204;2022-11-11T09:19:14;19.60;77.40
25906;DHT22;13713;52.552;13.204;2022-11-11T09:21:58;19.60;77.60
25906;DHT22;13713;52.552;13.204;2022-11-11T09:24:42;19.60;77.40
25906;DHT22;13713;52.552;13.204;2022-11-11T09:27:26;19.70;77.30
25906;DHT22;13713;52.552;13.204;2022-11-11T09:30:10;19.70;77.50
25906;DHT22;13713;52.552;13.204;2022-11-11T09:33:00;19.70;77.30
25906;DHT22;13713;52.552;13.204;2022-11-11T09:35:45;19.70;77.60
25906;DHT22;13713;52.552;13.204;2022-11-11T09:38:29;19.70;77.40
25906;DHT22;13713;52.552;13.204;2022-11-11T09:41:23;19.70;77.80
25906;DHT22;13713;52.552;13.204;2022-11-11T09:50:23;19.80;77.70
25906;DHT22;13713;52.552;13.204;2022-11-11T09:53:35;19.80;77.80
25906;DHT22;13713;52.552;13.204;2022-11-11T09:56:23;19.80;77.70
25906;DHT22;13713;52.552;13.204;2022-11-11T10:01:58;19.80;77.80
25906;DHT22;13713;52.552;13.204;2022-11-11T10:04:59;19.80;77.80
25906;DHT22;13713;52.552;13.204;2022-11-11T10:10:59;19.90;77.90
25906;DHT22;13713;52.552;13.204;2022-11-11T10:13:43;19.80;77.60
25906;DHT22;13713;52.552;13.204;2022-11-11T10:22:01;20.00;77.80
25906;DHT22;13713;52.552;13.204;2022-11-11T10:25:45;19.90;78.20
25906;DHT22;13713;52.552;13.204;2022-11-11T10:28:04;20.00;77.90
25906;DHT22;13713;52.552;13.204;2022-11-11T10:30:49;19.90;78.10
25906;DHT22;13713;52.552;13.204;2022-11-11T10:34:07;20.00;78.00
25906;DHT22;13713;52.552;13.204;2022-11-11T10:36:54;20.00;77.90
25906;DHT22;13713;52.552;13.204;2022-11-11T10:39:45;20.00;77.90
25906;DHT22;13713;52.552;13.204;2022-11-11T10:42:31;20.00;77.90
25906;DHT22;13713;52.552;13.204;2022-11-11T10:48:41;20.10;78.30
25906;DHT22;13713;52.552;13.204;2022-11-11T10:51:42;20.10;79.10
25906;DHT22;13713;52.552;13.204;2022-11-11T10:54:40;20.10;78.30
25906;DHT22;13713;52.552;13.204;2022-11-11T10:57:34;20.10;78.30
25906;DHT22;13713;52.552;13.204;2022-11-11T11:00:19;20.10;78.40
25906;DHT22;13713;52.552;13.204;2022-11-11T11:06:13;20.10;78.20
25906;DHT22;13713;52.552;13.204;2022-11-11T11:09:28;20.10;77.60
25906;DHT22;13713;52.552;13.204;2022-11-11T11:12:17;20.10;77.70
25906;DHT22;13713;52.552;13.204;2022-11-11T11:15:09;20.10;78.10
25906;DHT22;13713;52.552;13.204;2022-11-11T11:18:05;20.10;78.20
25906;DHT22;13713;52.552;13.204;2022-11-11T11:20:57;20.10;77.90
25906;DHT22;13713;52.552;13.204;2022-11-11T11:23:45;20.10;77.80
25906;DHT22;13713;52.552;13.204;2022-11-11T11:26:43;20.10;77.90
25906;DHT22;13713;52.552;13.204;2022-11-11T11:29:32;20.10;77.80
25906;DHT22;13713;52.552;13.204;2022-11-11T11:32:27;20.10;77.80
25906;DHT22;13713;52.552;13.204;2022-11-11T11:38:13;20.20;77.90
25906;DHT22;13713;52.552;13.204;2022-11-11T11:40:57;20.20;77.80
25906;DHT22;13713;52.552;13.204;2022-11-11T11:43:41;20.20;78.30
25906;DHT22;13713;52.552;13.204;2022-11-11T11:46:31;20.20;77.90
25906;DHT22;13713;52.552;13.204;2022-11-11T11:49:29;20.20;77.80
25906;DHT22;13713;52.552;13.204;2022-11-11T11:55:47;20.20;77.90
25906;DHT22;13713;52.552;13.204;2022-11-11T12:01:39;20.20;77.90
25906;DHT22;13713;52.552;13.204;2022-11-11T12:10:24;20.20;78.70
25906;DHT22;13713;52.552;13.204;2022-11-11T12:32:23;20.20;78.00
25906;DHT22;13713;52.552;13.204;2022-11-11T12:35:22;20.20;75.10
25906;DHT22;13713;52.552;13.204;2022-11-11T12:38:14;20.10;72.60
25906;DHT22;13713;52.552;13.204;2022-11-11T12:41:06;20.00;70.70
25906;DHT22;13713;52.552;13.204;2022-11-11T12:44:09;20.00;70.40
25906;DHT22;13713;52.552;13.204;2022-11-11T12:47:20;19.90;69.30
25906;DHT22;13713;52.552;13.204;2022-11-11T12:50:25;19.90;67.50
25906;DHT22;13713;52.552;13.204;2022-11-11T12:53:56;19.80;67.00
25906;DHT22;13713;52.552;13.204;2022-11-11T13:00:23;19.70;65.30
25906;DHT22;13713;52.552;13.204;2022-11-11T13:03:25;19.60;64.70
25906;DHT22;13713;52.552;13.204;2022-11-11T13:09:59;19.60;64.80
25906;DHT22;13713;52.552;13.204;2022-11-11T13:16:02;19.60;63.10
25906;DHT22;13713;52.552;13.204;2022-11-11T13:18:55;19.50;62.90
25906;DHT22;13713;52.552;13.204;2022-11-11T13:21:53;19.50;62.50
25906;DHT22;13713;52.552;13.204;2022-11-11T13:24:38;19.50;62.60
25906;DHT22;13713;52.552;13.204;2022-11-11T13:27:41;19.50;62.30
25906;DHT22;13713;52.552;13.204;2022-11-11T13:30:45;19.40;61.70
25906;DHT22;13713;52.552;13.204;2022-11-11T13:33:44;19.40;61.80
25906;DHT22;13713;52.552;13.204;2022-11-11T13:36:41;19.40;61.00
25906;DHT22;13713;52.552;13.204;2022-11-11T13:39:29;19.40;60.40
25906;DHT22;13713;52.552;13.204;2022-11-11T13:42:21;19.30;60.30
25906;DHT22;13713;52.552;13.204;2022-11-11T13:45:12;19.30;60.90
25906;DHT22;13713;52.552;13.204;2022-11-11T13:48:03;19.30;60.90
25906;DHT22;13713;52.552;13.204;2022-11-11T13:50:48;19.30;61.00
25906;DHT22;13713;52.552;13.204;2022-11-11T13:53:35;19.20;60.60
25906;DHT22;13713;52.552;13.204;2022-11-11T13:56:43;19.20;60.20
25906;DHT22;13713;52.552;13.204;2022-11-11T13:59:31;19.20;60.20
25906;DHT22;13713;52.552;13.204;2022-11-11T14:07:56;19.10;59.80
25906;DHT22;13713;52.552;13.204;2022-11-11T14:10:51;19.10;59.80
25906;DHT22;13713;52.552;13.204;2022-11-11T14:13:37;19.10;59.80
25906;DHT22;13713;52.552;13.204;2022-11-11T14:22:32;19.10;64.10
25906;DHT22;13713;52.552;13.204;2022-11-11T14:25:26;19.10;64.70
25906;DHT22;13713;52.552;13.204;2022-11-11T14:28:27;19.10;65.10
25906;DHT22;13713;52.552;13.204;2022-11-11T14:36:51;19.10;66.00
25906;DHT22;13713;52.552;13.204;2022-11-11T14:39:45;19.20;66.20
25906;DHT22;13713;52.552;13.204;2022-11-11T14:51:39;19.20;67.10
25906;DHT22;13713;52.552;13.204;2022-11-11T14:57:21;19.20;67.30
25906;DHT22;13713;52.552;13.204;2022-11-11T15:00:27;19.20;67.40
25906;DHT22;13713;52.552;13.204;2022-11-11T15:03:24;19.30;67.60
25906;DHT22;13713;52.552;13.204;2022-11-11T15:12:20;19.20;67.90
25906;DHT22;13713;52.552;13.204;2022-11-11T15:15:11;19.30;68.00
25906;DHT22;13713;52.552;13.204;2022-11-11T15:21:08;19.20;68.10
25906;DHT22;13713;52.552;13.204;2022-11-11T15:38:58;19.20;69.00
25906;DHT22;13713;52.552;13.204;2022-11-11T15:41:48;19.20;69.10
25906;DHT22;13713;52.552;13.204;2022-11-11T15:44:34;19.30;70.00
25906;DHT22;13713;52.552;13.204;2022-11-11T15:47:19;19.20;69.30
25906;DHT22;13713;52.552;13.204;2022-11-11T15:53:11;19.30;69.60
25906;DHT22;13713;52.552;13.204;2022-11-11T15:55:56;19.30;69.80
25906;DHT22;13713;52.552;13.204;2022-11-11T15:58:40;19.30;69.90
25906;DHT22;13713;52.552;13.204;2022-11-11T16:01:27;19.30;69.90
25906;DHT22;13713;52.552;13.204;2022-11-11T16:04:16;19.30;70.00
25906;DHT22;13713;52.552;13.204;2022-11-11T16:07:01;19.30;70.10
25906;DHT22;13713;52.552;13.204;2022-11-11T16:09:46;19.30;70.30
25906;DHT22;13713;52.552;13.204;2022-11-11T16:12:40;19.30;70.30
25906;DHT22;13713;52.552;13.204;2022-11-11T16:15:44;19.30;70.50
25906;DHT22;13713;52.552;13.204;2022-11-11T16:18:33;19.30;70.60
25906;DHT22;13713;52.552;13.204;2022-11-11T16:24:24;19.30;70.70
25906;DHT22;13713;52.552;13.204;2022-11-11T16:27:17;19.30;70.80
25906;DHT22;13713;52.552;13.204;2022-11-11T16:36:09;19.20;71.40
25906;DHT22;13713;52.552;13.204;2022-11-11T16:38:54;19.30;70.80
25906;DHT22;13713;52.552;13.204;2022-11-11T16:41:38;19.30;70.70
25906;DHT22;13713;52.552;13.204;2022-11-11T16:44:40;19.20;70.80
25906;DHT22;13713;52.552;13.204;2022-11-11T16:53:02;19.30;70.90
25906;DHT22;13713;52.552;13.204;2022-11-11T16:55:47;19.20;70.80
25906;DHT22;13713;52.552;13.204;2022-11-11T16:58:32;19.20;70.90
25906;DHT22;13713;52.552;13.204;2022-11-11T17:01:23;19.20;70.90
25906;DHT22;13713;52.552;13.204;2022-11-11T17:04:07;19.20;70.90
25906;DHT22;13713;52.552;13.204;2022-11-11T17:06:54;19.30;71.00
25906;DHT22;13713;52.552;13.204;2022-11-11T17:09:40;19.20;71.00
25906;DHT22;13713;52.552;13.204;2022-11-11T17:12:30;19.20;70.90
25906;DHT22;13713;52.552;13.204;2022-11-11T17:15:17;19.20;71.00
25906;DHT22;13713;52.552;13.204;2022-11-11T17:18:01;19.20;71.00
25906;DHT22;13713;52.552;13.204;2022-11-11T17:20:45;19.30;71.10
25906;DHT22;13713;52.552;13.204;2022-11-11T17:23:30;19.20;71.00
25906;DHT22;13713;52.552;13.204;2022-11-11T17:26:16;19.20;71.00
25906;DHT22;13713;52.552;13.204;2022-11-11T17:29:00;19.20;71.10
25906;DHT22;13713;52.552;13.204;2022-11-11T17:31:44;19.20;71.00
25906;DHT22;13713;52.552;13.204;2022-11-11T17:34:28;19.20;71.10
25906;DHT22;13713;52.552;13.204;2022-11-11T17:37:13;19.20;71.10
25906;DHT22;13713;52.552;13.204;2022-11-11T17:39:57;19.20;71.10
25906;DHT22;13713;52.552;13.204;2022-11-11T17:42:41;19.10;71.00
25906;DHT22;13713;52.552;13.204;2022-11-11T17:45:25;19.20;71.10
25906;DHT22;13713;52.552;13.204;2022-11-11T17:48:11;19.10;71.10
25906;DHT22;13713;52.552;13.204;2022-11-11T17:50:56;19.10;71.10
25906;DHT22;13713;52.552;13.204;2022-11-11T17:53:40;19.20;71.50
25906;DHT22;13713;52.552;13.204;2022-11-11T17:56:24;19.10;71.10
25906;DHT22;13713;52.552;13.204;2022-11-11T17:59:09;19.10;71.10
25906;DHT22;13713;52.552;13.204;2022-11-11T18:01:54;19.10;71.10
25906;DHT22;13713;52.552;13.204;2022-11-11T18:04:39;19.00;71.10
25906;DHT22;13713;52.552;13.204;2022-11-11T18:07:24;19.10;71.10
25906;DHT22;13713;52.552;13.204;2022-11-11T18:10:08;19.10;71.10
25906;DHT22;13713;52.552;13.204;2022-11-11T18:12:53;19.10;71.10
25906;DHT22;13713;52.552;13.204;2022-11-11T18:15:37;19.10;71.10
25906;DHT22;13713;52.552;13.204;2022-11-11T18:18:22;19.10;71.10
25906;DHT22;13713;52.552;13.204;2022-11-11T18:21:06;19.10;71.10
25906;DHT22;13713;52.552;13.204;2022-11-11T18:23:50;19.10;71.10
25906;DHT22;13713;52.552;13.204;2022-11-11T18:26:35;19.10;71.10
25906;DHT22;13713;52.552;13.204;2022-11-11T18:29:20;19.10;71.10
25906;DHT22;13713;52.552;13.204;2022-11-11T18:32:04;19.10;71.20
25906;DHT22;13713;52.552;13.204;2022-11-11T18:34:48;19.00;71.10
25906;DHT22;13713;52.552;13.204;2022-11-11T18:37:32;19.10;71.20
25906;DHT22;13713;52.552;13.204;2022-11-11T18:40:19;19.10;71.20
25906;DHT22;13713;52.552;13.204;2022-11-11T18:43:03;19.00;71.10
25906;DHT22;13713;52.552;13.204;2022-11-11T18:45:47;19.00;71.10
25906;DHT22;13713;52.552;13.204;2022-11-11T18:48:34;19.00;71.10
25906;DHT22;13713;52.552;13.204;2022-11-11T18:51:19;19.00;71.10
25906;DHT22;13713;52.552;13.204;2022-11-11T18:54:03;19.00;71.10
25906;DHT22;13713;52.552;13.204;2022-11-11T18:56:48;19.00;71.10
25906;DHT22;13713;52.552;13.204;2022-11-11T18:59:32;19.00;71.10
25906;DHT22;13713;52.552;13.204;2022-11-11T19:02:16;19.00;71.10
25906;DHT22;13713;52.552;13.204;2022-11-11T19:05:00;19.00;71.10
25906;DHT22;13713;52.552;13.204;2022-11-11T19:07:46;19.00;72.00
25906;DHT22;13713;52.552;13.204;2022-11-11T19:10:31;19.00;71.20
25906;DHT22;13713;52.552;13.204;2022-11-11T19:13:15;19.00;71.10
25906;DHT22;13713;52.552;13.204;2022-11-11T19:16:09;19.00;71.10
25906;DHT22;13713;52.552;13.204;2022-11-11T19:18:54;19.00;71.10
25906;DHT22;13713;52.552;13.204;2022-11-11T19:21:38;19.00;71.10
25906;DHT22;13713;52.552;13.204;2022-11-11T19:24:22;18.90;71.10
25906;DHT22;13713;52.552;13.204;2022-11-11T19:27:06;18.90;71.10
25906;DHT22;13713;52.552;13.204;2022-11-11T19:29:50;18.90;71.00
25906;DHT22;13713;52.552;13.204;2022-11-11T19:32:34;18.80;71.00
25906;DHT22;13713;52.552;13.204;2022-11-11T19:35:18;18.90;71.10
25906;DHT22;13713;52.552;13.204;2022-11-11T19:38:04;18.90;71.10
25906;DHT22;13713;52.552;13.204;2022-11-11T19:40:48;18.90;71.10
25906;DHT22;13713;52.552;13.204;2022-11-11T19:43:33;18.90;71.00
25906;DHT22;13713;52.552;13.204;2022-11-11T19:46:18;18.90;71.10
25906;DHT22;13713;52.552;13.204;2022-11-11T19:49:03;18.90;71.10
25906;DHT22;13713;52.552;13.204;2022-11-11T19:51:47;18.80;71.00
25906;DHT22;13713;52.552;13.204;2022-11-11T19:54:31;18.90;71.10